createdAt,value
2017-09-04T00:00:02.865Z,982.6
2017-09-04T00:01:03.484Z,982.6
2017-09-04T00:02:03.625Z,982.6
2017-09-04T00:03:03.010Z,982.7
2017-09-04T00:04:03.604Z,982.7
2017-09-04T00:05:02.609Z,982.6
2017-09-04T00:06:03.013Z,982.6
2017-09-04T00:07:04.055Z,982.6
2017-09-04T00:08:03.281Z,982.7
2017-09-04T00:09:03.300Z,982.6
2017-09-04T00:10:03.079Z,982.6
2017-09-04T00:11:03.494Z,982.6
2017-09-04T00:12:02.723Z,982.6
2017-09-04T00:13:03.365Z,982.6
2017-09-04T00:14:02.971Z,982.6
2017-09-04T00:15:03.221Z,982.6
2017-09-04T00:16:03.487Z,982.6
2017-09-04T00:17:03.103Z,982.6
2017-09-04T00:18:03.555Z,982.6
2017-09-04T00:19:03.477Z,982.6
2017-09-04T00:20:03.153Z,982.6
2017-09-04T00:21:03.592Z,982.6
2017-09-04T00:22:03.669Z,982.6
2017-09-04T00:23:02.728Z,982.6
2017-09-04T00:24:03.828Z,982.5
2017-09-04T00:25:03.450Z,982.5
2017-09-04T00:26:02.927Z,982.5
2017-09-04T00:27:02.933Z,982.6
2017-09-04T00:28:03.315Z,982.5
2017-09-04T00:29:02.928Z,982.5
2017-09-04T00:30:03.779Z,982.5
2017-09-04T00:31:03.768Z,982.5
2017-09-04T00:32:03.552Z,982.4
2017-09-04T00:33:03.555Z,982.4
2017-09-04T00:34:02.759Z,982.4
2017-09-04T00:35:03.602Z,982.3
2017-09-04T00:36:02.816Z,982.4
2017-09-04T00:37:03.236Z,982.4
2017-09-04T00:38:02.845Z,982.3
2017-09-04T00:39:03.658Z,982.4
2017-09-04T00:40:03.054Z,982.4
2017-09-04T00:41:02.850Z,982.3
2017-09-04T00:42:03.281Z,982.4
2017-09-04T00:43:02.879Z,982.3
2017-09-04T00:44:03.668Z,982.3
2017-09-04T00:45:02.682Z,982.3
2017-09-04T00:46:03.260Z,982.3
2017-09-04T00:47:02.688Z,982.3
2017-09-04T00:48:03.085Z,982.3
2017-09-04T00:49:02.869Z,982.3
2017-09-04T00:50:03.697Z,982.3
2017-09-04T00:51:03.883Z,982.3
2017-09-04T00:52:03.727Z,982.3
2017-09-04T00:53:03.113Z,982.3
2017-09-04T00:54:03.328Z,982.3
2017-09-04T00:55:03.524Z,982.3
2017-09-04T00:56:02.858Z,982.4
2017-09-04T00:57:03.472Z,982.4
2017-09-04T00:58:02.863Z,982.4
2017-09-04T00:59:03.458Z,982.4
2017-09-04T01:00:02.653Z,982.4
2017-09-04T01:01:03.341Z,982.4
2017-09-04T01:02:03.147Z,982.5
2017-09-04T01:03:02.921Z,982.4
2017-09-04T01:04:03.780Z,982.5
2017-09-04T01:05:03.166Z,982.4
2017-09-04T01:06:02.934Z,982.4
2017-09-04T01:07:04.022Z,982.4
2017-09-04T01:08:03.356Z,982.4
2017-09-04T01:09:03.538Z,982.5
2017-09-04T01:10:02.765Z,982.5
2017-09-04T01:11:03.573Z,982.4
2017-09-04T01:12:03.189Z,982.5
2017-09-04T01:13:02.605Z,982.5
2017-09-04T01:14:03.404Z,982.4
2017-09-04T01:15:02.792Z,982.4
2017-09-04T01:16:03.415Z,982.4
2017-09-04T01:17:03.209Z,982.4
2017-09-04T01:18:03.214Z,982.4
2017-09-04T01:19:02.796Z,982.4
2017-09-04T01:20:03.435Z,982.5
2017-09-04T01:21:03.519Z,982.4
2017-09-04T01:22:03.155Z,982.4
2017-09-04T01:23:04.013Z,982.5
2017-09-04T01:24:03.826Z,982.5
2017-09-04T01:25:04.155Z,982.5
2017-09-04T01:26:02.965Z,982.5
2017-09-04T01:27:02.481Z,982.5
2017-09-04T01:28:03.315Z,982.6
2017-09-04T01:29:04.051Z,982.5
2017-09-04T01:30:03.465Z,982.5
2017-09-04T01:31:03.217Z,982.5
2017-09-04T01:32:03.265Z,982.5
2017-09-04T01:33:03.731Z,982.5
2017-09-04T01:34:03.584Z,982.5
2017-09-04T01:35:03.025Z,982.5
2017-09-04T01:36:03.254Z,982.5
2017-09-04T01:37:03.293Z,982.5
2017-09-04T01:38:03.837Z,982.5
2017-09-04T01:39:03.238Z,982.4
2017-09-04T01:40:02.638Z,982.4
2017-09-04T01:41:03.092Z,982.4
2017-09-04T01:42:03.300Z,982.4
2017-09-04T01:43:03.300Z,982.5
2017-09-04T01:44:03.546Z,982.5
2017-09-04T01:45:03.637Z,982.5
2017-09-04T01:46:03.676Z,982.5
2017-09-04T01:47:03.111Z,982.4
2017-09-04T01:48:03.941Z,982.5
2017-09-04T01:49:03.782Z,982.4
2017-09-04T01:50:04.125Z,982.4
2017-09-04T01:51:02.753Z,982.4
2017-09-04T01:52:03.351Z,982.4
2017-09-04T01:53:03.217Z,982.5
2017-09-04T01:54:03.263Z,982.4
2017-09-04T01:55:02.672Z,982.5
2017-09-04T01:56:03.911Z,982.5
2017-09-04T01:57:03.502Z,982.5
2017-09-04T01:58:03.113Z,982.6
2017-09-04T01:59:02.780Z,982.5
2017-09-04T02:00:03.047Z,982.6
2017-09-04T02:01:03.457Z,982.5
2017-09-04T02:02:02.980Z,982.5
2017-09-04T02:03:03.839Z,982.5
2017-09-04T02:04:03.407Z,982.5
2017-09-04T02:05:02.836Z,982.6
2017-09-04T02:06:03.050Z,982.5
2017-09-04T02:07:03.668Z,982.5
2017-09-04T02:08:02.868Z,982.6
2017-09-04T02:09:03.448Z,982.6
2017-09-04T02:10:04.078Z,982.6
2017-09-04T02:11:03.479Z,982.5
2017-09-04T02:12:03.602Z,982.6
2017-09-04T02:13:03.219Z,982.6
2017-09-04T02:14:03.917Z,982.5
2017-09-04T02:15:03.340Z,982.5
2017-09-04T02:16:04.131Z,982.6
2017-09-04T02:17:03.336Z,982.5
2017-09-04T02:18:02.952Z,982.5
2017-09-04T02:19:03.561Z,982.5
2017-09-04T02:20:03.188Z,982.6
2017-09-04T02:21:02.974Z,982.5
2017-09-04T02:22:03.448Z,982.5
2017-09-04T02:23:03.535Z,982.5
2017-09-04T02:24:02.950Z,982.5
2017-09-04T02:25:03.567Z,982.5
2017-09-04T02:26:02.781Z,982.4
2017-09-04T02:27:03.977Z,982.5
2017-09-04T02:28:03.661Z,982.4
2017-09-04T02:29:03.299Z,982.5
2017-09-04T02:30:02.928Z,982.4
2017-09-04T02:31:04.089Z,982.4
2017-09-04T02:32:03.848Z,982.4
2017-09-04T02:33:03.314Z,982.4
2017-09-04T02:34:03.190Z,982.4
2017-09-04T02:35:02.794Z,982.4
2017-09-04T02:36:02.802Z,982.4
2017-09-04T02:37:03.630Z,982.4
2017-09-04T02:38:03.235Z,982.4
2017-09-04T02:39:04.143Z,982.4
2017-09-04T02:40:03.947Z,982.4
2017-09-04T02:41:03.598Z,982.5
2017-09-04T02:42:03.049Z,982.4
2017-09-04T02:43:03.870Z,982.4
2017-09-04T02:44:03.911Z,982.4
2017-09-04T02:45:03.571Z,982.4
2017-09-04T02:46:02.999Z,982.4
2017-09-04T02:47:03.445Z,982.4
2017-09-04T02:48:03.268Z,982.4
2017-09-04T02:49:03.908Z,982.3
2017-09-04T02:50:03.195Z,982.3
2017-09-04T02:51:03.630Z,982.3
2017-09-04T02:52:03.055Z,982.3
2017-09-04T02:53:03.889Z,982.3
2017-09-04T02:54:03.363Z,982.3
2017-09-04T02:55:02.965Z,982.3
2017-09-04T02:56:02.936Z,982.3
2017-09-04T02:57:03.335Z,982.2
2017-09-04T02:58:03.544Z,982.2
2017-09-04T02:59:03.157Z,982.2
2017-09-04T03:00:03.531Z,982.2
2017-09-04T03:01:03.232Z,982.1
2017-09-04T03:02:02.989Z,982.1
2017-09-04T03:03:02.829Z,982.1
2017-09-04T03:04:03.194Z,982.2
2017-09-04T03:05:03.196Z,982.1
2017-09-04T03:06:03.003Z,982.1
2017-09-04T03:07:03.460Z,982
2017-09-04T03:08:03.098Z,982.1
2017-09-04T03:09:03.338Z,982.1
2017-09-04T03:10:02.954Z,982.1
2017-09-04T03:11:02.805Z,982.1
2017-09-04T03:12:03.105Z,982
2017-09-04T03:13:03.938Z,982.1
2017-09-04T03:14:03.365Z,982.1
2017-09-04T03:15:02.810Z,982.1
2017-09-04T03:16:03.209Z,982.2
2017-09-04T03:17:03.302Z,982.1
2017-09-04T03:18:03.148Z,982.1
2017-09-04T03:19:02.794Z,982.2
2017-09-04T03:20:03.043Z,982.1
2017-09-04T03:21:03.189Z,982.2
2017-09-04T03:22:02.760Z,982.2
2017-09-04T03:23:03.072Z,982.2
2017-09-04T03:24:03.068Z,982.2
2017-09-04T03:25:02.526Z,982.3
2017-09-04T03:26:03.575Z,982.3
2017-09-04T03:27:03.251Z,982.2
2017-09-04T03:28:03.164Z,982.2
2017-09-04T03:29:02.656Z,982.3
2017-09-04T03:30:03.043Z,982.3
2017-09-04T03:31:03.170Z,982.2
2017-09-04T03:32:02.433Z,982.2
2017-09-04T03:33:03.407Z,982.2
2017-09-04T03:34:03.060Z,982.2
2017-09-04T03:35:03.088Z,982.2
2017-09-04T03:36:02.718Z,982.2
2017-09-04T03:37:03.387Z,982.2
2017-09-04T03:38:02.699Z,982.2
2017-09-04T03:39:03.262Z,982.3
2017-09-04T03:40:03.295Z,982.3
2017-09-04T03:41:03.355Z,982.2
2017-09-04T03:42:03.160Z,982.3
2017-09-04T03:43:02.582Z,982.4
2017-09-04T03:44:03.179Z,982.3
2017-09-04T03:45:07.954Z,982.3
2017-09-04T03:46:03.624Z,982.3
2017-09-04T03:47:03.250Z,982.3
2017-09-04T03:48:02.855Z,982.3
2017-09-04T03:49:03.767Z,982.4
2017-09-04T03:50:03.411Z,982.4
2017-09-04T03:51:03.023Z,982.4
2017-09-04T03:52:03.459Z,982.4
2017-09-04T03:53:03.287Z,982.4
2017-09-04T03:54:02.705Z,982.4
2017-09-04T03:55:03.552Z,982.5
2017-09-04T03:56:03.148Z,982.4
2017-09-04T03:57:03.144Z,982.4
2017-09-04T03:58:02.341Z,982.4
2017-09-04T03:59:02.364Z,982.4
2017-09-04T04:00:02.942Z,982.5
2017-09-04T04:01:03.267Z,982.5
2017-09-04T04:02:03.678Z,982.5
2017-09-04T04:03:03.486Z,982.5
2017-09-04T04:04:04.083Z,982.5
2017-09-04T04:05:03.315Z,982.5
2017-09-04T04:06:04.039Z,982.5
2017-09-04T04:07:03.840Z,982.5
2017-09-04T04:08:03.645Z,982.5
2017-09-04T04:09:03.392Z,982.5
2017-09-04T04:10:04.693Z,982.5
2017-09-04T04:11:03.520Z,982.6
2017-09-04T04:12:04.516Z,982.5
2017-09-04T04:13:03.707Z,982.5
2017-09-04T04:14:03.481Z,982.5
2017-09-04T04:15:02.873Z,982.5
2017-09-04T04:16:03.089Z,982.5
2017-09-04T04:17:03.480Z,982.5
2017-09-04T04:18:04.131Z,982.5
2017-09-04T04:19:03.551Z,982.5
2017-09-04T04:20:03.564Z,982.6
2017-09-04T04:21:03.359Z,982.5
2017-09-04T04:22:03.946Z,982.6
2017-09-04T04:23:03.791Z,982.6
2017-09-04T04:24:03.650Z,982.6
2017-09-04T04:25:03.075Z,982.6
2017-09-04T04:26:03.985Z,982.6
2017-09-04T04:27:03.423Z,982.6
2017-09-04T04:28:03.658Z,982.6
2017-09-04T04:29:03.256Z,982.6
2017-09-04T04:30:03.466Z,982.6
2017-09-04T04:31:03.436Z,982.6
2017-09-04T04:32:03.886Z,982.7
2017-09-04T04:33:02.914Z,982.7
2017-09-04T04:34:03.505Z,982.6
2017-09-04T04:35:02.688Z,982.7
2017-09-04T04:36:03.289Z,982.7
2017-09-04T04:37:03.706Z,982.7
2017-09-04T04:38:03.348Z,982.7
2017-09-04T04:39:03.731Z,982.7
2017-09-04T04:40:03.131Z,982.8
2017-09-04T04:41:03.594Z,982.8
2017-09-04T04:42:03.036Z,982.8
2017-09-04T04:43:03.946Z,982.8
2017-09-04T04:44:04.273Z,982.8
2017-09-04T04:45:03.800Z,982.8
2017-09-04T04:46:03.380Z,982.8
2017-09-04T04:47:03.618Z,982.8
2017-09-04T04:48:04.518Z,982.7
2017-09-04T04:49:03.741Z,982.7
2017-09-04T04:50:03.163Z,982.8
2017-09-04T04:51:03.547Z,982.8
2017-09-04T04:52:03.956Z,982.8
2017-09-04T04:53:03.944Z,982.8
2017-09-04T04:54:03.342Z,982.8
2017-09-04T04:55:03.526Z,982.8
2017-09-04T04:56:03.734Z,982.8
2017-09-04T04:57:03.908Z,982.8
2017-09-04T04:58:02.944Z,982.8
2017-09-04T04:59:03.756Z,982.8
2017-09-04T05:00:03.153Z,982.8
2017-09-04T05:01:03.371Z,982.8
2017-09-04T05:02:03.797Z,982.8
2017-09-04T05:03:02.762Z,982.9
2017-09-04T05:04:03.472Z,982.8
2017-09-04T05:05:04.285Z,982.9
2017-09-04T05:06:03.689Z,982.8
2017-09-04T05:07:03.287Z,982.8
2017-09-04T05:08:03.899Z,982.9
2017-09-04T05:09:03.302Z,982.9
2017-09-04T05:10:03.713Z,982.8
2017-09-04T05:11:03.138Z,982.9
2017-09-04T05:12:03.720Z,982.9
2017-09-04T05:13:03.285Z,982.8
2017-09-04T05:14:03.478Z,982.9
2017-09-04T05:15:25.208Z,982.9
2017-09-04T05:27:03.179Z,983.1
2017-09-04T05:28:03.387Z,983
2017-09-04T05:29:03.254Z,983
2017-09-04T05:30:03.802Z,983
2017-09-04T05:31:03.591Z,983
2017-09-04T05:32:03.351Z,983.1
2017-09-04T05:33:04.011Z,983.1
2017-09-04T05:34:03.007Z,983.1
2017-09-04T05:35:02.876Z,983.1
2017-09-04T05:36:03.096Z,983.1
2017-09-04T05:37:03.451Z,983.1
2017-09-04T05:38:03.961Z,983.1
2017-09-04T05:39:03.120Z,983.2
2017-09-04T05:40:03.446Z,983.2
2017-09-04T05:41:02.822Z,983.2
2017-09-04T05:42:03.907Z,983.2
2017-09-04T05:43:03.562Z,983.3
2017-09-04T05:44:03.492Z,983.3
2017-09-04T05:45:03.065Z,983.3
2017-09-04T05:46:04.144Z,983.2
2017-09-04T05:47:04.111Z,983.3
2017-09-04T05:48:03.300Z,983.3
2017-09-04T05:49:03.354Z,983.2
2017-09-04T05:50:03.040Z,983.3
2017-09-04T05:51:03.082Z,983.3
2017-09-04T05:52:03.616Z,983.3
2017-09-04T05:53:03.153Z,983.3
2017-09-04T05:54:02.919Z,983.2
2017-09-04T05:55:02.720Z,983.2
2017-09-04T05:56:02.967Z,983.3
2017-09-04T05:57:02.892Z,983.2
2017-09-04T05:58:03.012Z,983.3
2017-09-04T05:59:03.196Z,983.2
2017-09-04T06:00:02.829Z,983.2
2017-09-04T06:01:04.170Z,983.2
2017-09-04T06:02:04.181Z,983.2
2017-09-04T06:03:04.318Z,983.3
2017-09-04T06:04:04.474Z,983.3
2017-09-04T06:05:03.850Z,983.3
2017-09-04T06:06:03.646Z,983.4
2017-09-04T06:07:03.440Z,983.3
2017-09-04T06:08:04.539Z,983.3
2017-09-04T06:09:04.559Z,983.3
2017-09-04T06:10:03.278Z,983.4
2017-09-04T06:11:04.276Z,983.3
2017-09-04T06:12:03.799Z,983.3
2017-09-04T06:13:04.008Z,983.3
2017-09-04T06:14:03.812Z,983.4
2017-09-04T06:16:04.519Z,983.3
2017-09-04T06:17:03.914Z,983.3
2017-09-04T06:18:03.252Z,983.4
2017-09-04T06:19:03.572Z,983.4
2017-09-04T06:20:03.934Z,983.3
2017-09-04T06:21:03.906Z,983.4
2017-09-04T06:22:05.022Z,983.4
2017-09-04T06:23:03.922Z,983.4
2017-09-04T06:24:03.978Z,983.4
2017-09-04T06:25:03.994Z,983.4
2017-09-04T06:26:04.138Z,983.4
2017-09-04T06:27:03.268Z,983.5
2017-09-04T06:28:04.119Z,983.4
2017-09-04T06:29:04.408Z,983.4
2017-09-04T06:30:04.010Z,983.5
2017-09-04T06:31:03.736Z,983.5
2017-09-04T06:32:03.380Z,983.5
2017-09-04T06:33:04.144Z,983.5
2017-09-04T06:34:03.309Z,983.4
2017-09-04T06:35:04.080Z,983.5
2017-09-04T06:36:03.915Z,983.5
2017-09-04T06:37:03.895Z,983.5
2017-09-04T06:38:03.755Z,983.6
2017-09-04T06:39:03.889Z,983.5
2017-09-04T06:40:03.661Z,983.6
2017-09-04T06:41:03.477Z,983.5
2017-09-04T06:42:04.279Z,983.6
2017-09-04T06:43:04.212Z,983.5
2017-09-04T06:44:03.936Z,983.6
2017-09-04T06:45:03.225Z,983.6
2017-09-04T06:46:25.454Z,983.6
2017-09-04T06:46:59.040Z,983.6
2017-09-04T06:47:03.646Z,983.6
2017-09-04T06:48:04.835Z,983.6
2017-09-04T06:49:03.550Z,983.6
2017-09-04T06:50:03.789Z,983.6
2017-09-04T06:51:03.479Z,983.6
2017-09-04T06:52:35.942Z,983.6
2017-09-04T06:53:03.891Z,983.6
2017-09-04T06:54:03.476Z,983.6
2017-09-04T06:55:03.800Z,983.6
2017-09-04T06:56:03.533Z,983.5
2017-09-04T06:57:04.411Z,983.6
2017-09-04T06:58:04.299Z,983.6
2017-09-04T06:59:03.918Z,983.5
2017-09-04T07:00:03.813Z,983.6
2017-09-04T07:01:02.887Z,983.5
2017-09-04T07:02:02.858Z,983.6
2017-09-04T07:03:02.886Z,983.6
2017-09-04T07:04:02.938Z,983.7
2017-09-04T07:05:03.257Z,983.7
2017-09-04T07:06:02.630Z,983.7
2017-09-04T07:07:02.967Z,983.6
2017-09-04T07:08:02.845Z,983.6
2017-09-04T07:09:03.125Z,983.7
2017-09-04T07:10:02.891Z,983.7
2017-09-04T07:11:02.913Z,983.7
2017-09-04T07:12:02.610Z,983.7
2017-09-04T07:13:03.391Z,983.7
2017-09-04T07:14:03.559Z,983.7
2017-09-04T07:15:03.011Z,983.7
2017-09-04T07:16:02.540Z,983.7
2017-09-04T07:17:03.243Z,983.7
2017-09-04T07:18:02.930Z,983.7
2017-09-04T07:19:03.122Z,983.7
2017-09-04T07:20:03.490Z,983.7
2017-09-04T07:21:03.432Z,983.8
2017-09-04T07:22:03.573Z,983.8
2017-09-04T07:23:02.303Z,983.8
2017-09-04T07:24:03.403Z,983.7
2017-09-04T07:25:03.138Z,983.8
2017-09-04T07:26:03.004Z,983.8
2017-09-04T07:27:02.984Z,983.7
2017-09-04T07:28:03.197Z,983.7
2017-09-04T07:29:02.608Z,983.7
2017-09-04T07:30:02.537Z,983.7
2017-09-04T07:31:03.602Z,983.7
2017-09-04T07:32:03.415Z,983.7
2017-09-04T07:33:03.358Z,983.8
2017-09-04T07:34:02.890Z,983.7
2017-09-04T07:35:02.923Z,983.8
2017-09-04T07:36:02.680Z,983.7
2017-09-04T07:37:02.281Z,983.8
2017-09-04T07:38:03.463Z,983.8
2017-09-04T07:39:03.866Z,983.7
2017-09-04T07:40:02.686Z,983.7
2017-09-04T07:41:02.740Z,983.7
2017-09-04T07:42:03.706Z,983.8
2017-09-04T07:43:03.697Z,983.8
2017-09-04T07:44:03.159Z,983.8
2017-09-04T07:45:02.659Z,983.8
2017-09-04T07:46:02.732Z,983.7
2017-09-04T07:47:03.200Z,983.8
2017-09-04T07:48:02.850Z,983.8
2017-09-04T07:49:03.117Z,983.8
2017-09-04T07:50:02.971Z,983.8
2017-09-04T07:51:02.445Z,983.8
2017-09-04T07:52:03.330Z,983.9
2017-09-04T07:53:03.175Z,983.8
2017-09-04T07:54:02.419Z,983.9
2017-09-04T07:55:03.099Z,983.8
2017-09-04T07:56:02.555Z,983.9
2017-09-04T07:57:03.405Z,983.8
2017-09-04T07:58:03.390Z,983.9
2017-09-04T07:59:02.450Z,983.9
2017-09-04T08:00:03.150Z,983.9
2017-09-04T08:01:03.749Z,983.9
2017-09-04T08:02:03.345Z,983.9
2017-09-04T08:03:04.000Z,984
2017-09-04T08:04:03.822Z,983.9
2017-09-04T08:05:03.861Z,983.9
2017-09-04T08:06:03.532Z,983.9
2017-09-04T08:07:03.808Z,984
2017-09-04T08:08:03.343Z,984
2017-09-04T08:09:04.401Z,984
2017-09-04T08:10:03.261Z,984
2017-09-04T08:11:03.918Z,984
2017-09-04T08:12:03.644Z,983.9
2017-09-04T08:13:03.115Z,983.9
2017-09-04T08:14:04.252Z,983.9
2017-09-04T08:15:03.307Z,984
2017-09-04T08:16:02.934Z,984
2017-09-04T08:17:03.963Z,984
2017-09-04T08:18:03.682Z,984
2017-09-04T08:19:03.140Z,984
2017-09-04T08:20:04.558Z,984
2017-09-04T08:21:03.399Z,984
2017-09-04T08:22:04.017Z,984.1
2017-09-04T08:23:04.268Z,984
2017-09-04T08:24:03.936Z,984.1
2017-09-04T08:25:03.381Z,984.1
2017-09-04T08:26:03.857Z,984.2
2017-09-04T08:27:03.125Z,984.1
2017-09-04T08:28:04.010Z,984.1
2017-09-04T08:29:04.100Z,984.1
2017-09-04T08:30:03.745Z,984.1
2017-09-04T08:31:04.095Z,984.1
2017-09-04T08:32:03.927Z,984.2
2017-09-04T08:33:03.563Z,984.1
2017-09-04T08:34:03.051Z,984.1
2017-09-04T08:35:03.329Z,984.2
2017-09-04T08:36:03.171Z,984.2
2017-09-04T08:37:03.854Z,984.2
2017-09-04T08:38:03.732Z,984.2
2017-09-04T08:39:03.354Z,984.2
2017-09-04T08:40:04.304Z,984.3
2017-09-04T08:41:03.837Z,984.2
2017-09-04T08:42:03.268Z,984.3
2017-09-04T08:43:03.912Z,984.2
2017-09-04T08:44:03.180Z,984.3
2017-09-04T08:45:03.445Z,984.3
2017-09-04T08:46:02.878Z,984.3
2017-09-04T08:47:03.885Z,984.3
2017-09-04T08:48:04.275Z,984.3
2017-09-04T08:49:03.878Z,984.3
2017-09-04T08:50:03.732Z,984.3
2017-09-04T08:51:03.785Z,984.3
2017-09-04T08:52:03.417Z,984.4
2017-09-04T08:53:03.662Z,984.4
2017-09-04T08:54:03.487Z,984.4
2017-09-04T08:55:03.728Z,984.4
2017-09-04T08:56:03.339Z,984.4
2017-09-04T08:57:03.379Z,984.4
2017-09-04T08:58:03.264Z,984.4
2017-09-04T08:59:04.401Z,984.4
2017-09-04T09:00:03.657Z,984.5
2017-09-04T09:01:02.684Z,984.5
2017-09-04T09:02:03.103Z,984.4
2017-09-04T09:03:02.606Z,984.5
2017-09-04T09:04:03.265Z,984.5
2017-09-04T09:05:02.725Z,984.6
2017-09-04T09:06:03.373Z,984.6
2017-09-04T09:07:03.630Z,984.5
2017-09-04T09:08:03.594Z,984.6
2017-09-04T09:09:02.592Z,984.5
2017-09-04T09:10:02.886Z,984.6
2017-09-04T09:11:02.581Z,984.6
2017-09-04T09:12:03.582Z,984.5
2017-09-04T09:13:03.715Z,984.5
2017-09-04T09:14:03.197Z,984.6
2017-09-04T09:15:02.671Z,984.6
2017-09-04T09:16:03.545Z,984.6
2017-09-04T09:17:03.604Z,984.7
2017-09-04T09:18:03.484Z,984.7
2017-09-04T09:19:03.641Z,984.7
2017-09-04T09:20:03.070Z,984.7
2017-09-04T09:21:02.817Z,984.7
2017-09-04T09:22:03.726Z,984.7
2017-09-04T09:23:03.183Z,984.7
2017-09-04T09:24:02.628Z,984.7
2017-09-04T09:25:03.058Z,984.7
2017-09-04T09:26:02.699Z,984.7
2017-09-04T09:27:03.031Z,984.7
2017-09-04T09:28:02.857Z,984.8
2017-09-04T09:29:02.473Z,984.8
2017-09-04T09:30:03.307Z,984.8
2017-09-04T09:31:03.819Z,984.8
2017-09-04T09:32:03.034Z,984.8
2017-09-04T09:33:02.877Z,984.8
2017-09-04T09:34:02.726Z,984.8
2017-09-04T09:35:02.557Z,984.7
2017-09-04T09:36:03.238Z,984.8
2017-09-04T09:37:02.670Z,984.7
2017-09-04T09:38:03.098Z,984.8
2017-09-04T09:39:03.516Z,984.7
2017-09-04T09:40:03.583Z,984.8
2017-09-04T09:41:03.416Z,984.8
2017-09-04T09:42:03.038Z,984.8
2017-09-04T09:43:02.870Z,984.7
2017-09-04T09:44:02.911Z,984.8
2017-09-04T09:45:02.562Z,984.8
2017-09-04T09:46:02.666Z,984.8
2017-09-04T09:47:03.209Z,984.8
2017-09-04T09:48:02.875Z,984.8
2017-09-04T09:49:03.507Z,984.8
2017-09-04T09:50:03.106Z,984.8
2017-09-04T09:51:07.798Z,984.8
2017-09-04T09:52:03.423Z,984.8
2017-09-04T09:53:03.224Z,984.8
2017-09-04T09:54:07.639Z,984.8
2017-09-04T09:55:03.264Z,984.8
2017-09-04T09:56:03.072Z,984.8
2017-09-04T09:57:03.320Z,984.8
2017-09-04T09:58:03.445Z,984.8
2017-09-04T09:59:03.247Z,984.8
2017-09-04T10:00:03.246Z,984.8
2017-09-04T10:01:02.782Z,984.8
2017-09-04T10:02:02.638Z,984.8
2017-09-04T10:03:02.665Z,984.7
2017-09-04T10:04:03.429Z,984.7
2017-09-04T10:05:03.046Z,984.7
2017-09-04T10:06:02.509Z,984.7
2017-09-04T10:07:03.315Z,984.8
2017-09-04T10:08:02.531Z,984.8
2017-09-04T10:09:03.869Z,984.8
2017-09-04T10:10:02.920Z,984.7
2017-09-04T10:11:02.567Z,984.8
2017-09-04T10:12:03.198Z,984.8
2017-09-04T10:13:02.632Z,984.9
2017-09-04T10:14:03.255Z,984.9
2017-09-04T10:15:03.111Z,984.8
2017-09-04T10:16:03.129Z,984.9
2017-09-04T10:17:03.013Z,984.8
2017-09-04T10:18:02.683Z,984.9
2017-09-04T10:20:02.564Z,984.8
2017-09-04T10:21:02.994Z,984.8
2017-09-04T10:22:02.427Z,984.8
2017-09-04T10:23:03.097Z,984.8
2017-09-04T10:24:02.581Z,984.7
2017-09-04T10:25:03.551Z,984.8
2017-09-04T10:26:03.831Z,984.7
2017-09-04T10:27:03.067Z,984.7
2017-09-04T10:28:02.875Z,984.8
2017-09-04T10:29:02.318Z,984.7
2017-09-04T10:30:02.789Z,984.8
2017-09-04T10:31:03.262Z,984.8
2017-09-04T10:32:03.040Z,984.8
2017-09-04T10:33:02.706Z,984.8
2017-09-04T10:34:03.344Z,984.8
2017-09-04T10:35:03.410Z,984.8
2017-09-04T10:36:03.321Z,984.9
2017-09-04T10:37:02.997Z,984.8
2017-09-04T10:38:02.657Z,984.9
2017-09-04T10:39:03.688Z,984.9
2017-09-04T10:40:03.157Z,985
2017-09-04T10:41:02.402Z,984.9
2017-09-04T10:42:03.252Z,985
2017-09-04T10:43:02.894Z,985
2017-09-04T10:44:02.582Z,985
2017-09-04T10:45:03.065Z,985
2017-09-04T10:46:02.489Z,985
2017-09-04T10:47:02.790Z,984.9
2017-09-04T10:48:03.539Z,985
2017-09-04T10:49:03.180Z,985
2017-09-04T10:50:03.229Z,985
2017-09-04T10:51:02.560Z,985
2017-09-04T10:52:03.206Z,985
2017-09-04T10:53:02.630Z,984.9
2017-09-04T10:54:03.296Z,985
2017-09-04T10:55:02.808Z,984.8
2017-09-04T10:56:03.707Z,984.9
2017-09-04T10:57:03.236Z,984.9
2017-09-04T10:58:03.149Z,984.8
2017-09-04T10:59:02.690Z,984.9
2017-09-04T11:00:03.736Z,984.7
2017-09-04T11:01:03.429Z,984.7
2017-09-04T11:02:03.086Z,984.8
2017-09-04T11:03:02.909Z,984.8
2017-09-04T11:04:03.802Z,984.9
2017-09-04T11:05:03.673Z,984.8
2017-09-04T11:06:02.909Z,984.8
2017-09-04T11:07:02.564Z,984.8
2017-09-04T11:08:02.818Z,984.8
2017-09-04T11:09:03.431Z,984.9
2017-09-04T11:10:03.420Z,984.8
2017-09-04T11:11:02.709Z,984.8
2017-09-04T11:12:03.172Z,984.8
2017-09-04T11:13:02.613Z,984.8
2017-09-04T11:14:03.087Z,984.8
2017-09-04T11:15:02.704Z,984.9
2017-09-04T11:16:03.960Z,984.8
2017-09-04T11:17:03.617Z,984.9
2017-09-04T11:18:03.025Z,984.8
2017-09-04T11:19:02.874Z,984.8
2017-09-04T11:20:03.493Z,984.8
2017-09-04T11:21:03.504Z,984.9
2017-09-04T11:22:03.550Z,984.8
2017-09-04T11:23:02.988Z,984.8
2017-09-04T11:24:02.819Z,984.9
2017-09-04T11:25:02.641Z,984.9
2017-09-04T11:26:04.024Z,984.8
2017-09-04T11:27:03.173Z,984.8
2017-09-04T11:28:03.017Z,984.9
2017-09-04T11:29:02.620Z,984.8
2017-09-04T11:30:03.481Z,984.8
2017-09-04T11:31:03.440Z,984.9
2017-09-04T11:32:02.864Z,984.8
2017-09-04T11:33:02.919Z,984.9
2017-09-04T11:34:03.542Z,984.9
2017-09-04T11:35:02.830Z,984.8
2017-09-04T11:36:03.456Z,984.8
2017-09-04T11:37:02.504Z,984.8
2017-09-04T11:38:03.533Z,984.9
2017-09-04T11:39:03.367Z,984.9
2017-09-04T11:40:03.168Z,984.8
2017-09-04T11:41:02.987Z,984.8
2017-09-04T11:42:04.102Z,984.8
2017-09-04T11:43:02.736Z,984.8
2017-09-04T11:44:03.765Z,984.8
2017-09-04T11:45:03.785Z,984.8
2017-09-04T11:46:03.374Z,984.9
2017-09-04T11:47:03.452Z,984.9
2017-09-04T11:48:03.050Z,984.9
2017-09-04T11:49:03.470Z,984.8
2017-09-04T11:50:03.400Z,984.9
2017-09-04T11:51:03.310Z,984.8
2017-09-04T11:52:02.920Z,984.8
2017-09-04T11:53:03.642Z,984.9
2017-09-04T11:54:03.683Z,984.9
2017-09-04T11:55:03.584Z,984.9
2017-09-04T11:56:03.176Z,984.9
2017-09-04T11:57:03.194Z,984.9
2017-09-04T11:58:02.822Z,984.9
2017-09-04T11:59:03.051Z,984.9
2017-09-04T12:00:02.841Z,984.9
2017-09-04T12:01:02.944Z,985
2017-09-04T12:02:02.566Z,984.9
2017-09-04T12:03:03.555Z,984.9
2017-09-04T12:04:03.271Z,984.9
2017-09-04T12:05:07.215Z,984.9
2017-09-04T12:06:03.559Z,984.9
2017-09-04T12:07:03.211Z,984.9
2017-09-04T12:08:02.998Z,984.9
2017-09-04T12:09:02.470Z,984.8
2017-09-04T12:10:03.282Z,984.9
2017-09-04T12:11:02.881Z,984.9
2017-09-04T12:12:02.879Z,984.9
2017-09-04T12:13:03.275Z,984.9
2017-09-04T12:14:03.283Z,984.9
2017-09-04T12:15:09.875Z,984.8
2017-09-04T12:16:06.326Z,984.8
2017-09-04T12:17:03.207Z,984.8
2017-09-04T12:18:04.586Z,984.8
2017-09-04T12:19:08.138Z,984.9
2017-09-04T12:20:04.961Z,984.9
2017-09-04T12:21:03.726Z,984.9
2017-09-04T12:22:03.537Z,984.9
2017-09-04T12:23:07.820Z,984.9
2017-09-04T12:24:02.973Z,984.9
2017-09-04T12:25:05.937Z,984.9
2017-09-04T12:26:03.663Z,985
2017-09-04T12:27:03.666Z,984.9
2017-09-04T12:28:03.523Z,985
2017-09-04T12:29:03.827Z,984.9
2017-09-04T12:30:02.764Z,984.9
2017-09-04T12:31:03.489Z,984.9
2017-09-04T12:32:03.040Z,985
2017-09-04T12:33:02.039Z,985
2017-09-04T12:34:02.462Z,985
2017-09-04T12:35:02.859Z,985
2017-09-04T12:36:03.462Z,984.9
2017-09-04T12:37:03.057Z,984.9
2017-09-04T12:38:08.596Z,985
2017-09-04T12:39:03.018Z,985
2017-09-04T12:40:02.218Z,985
2017-09-04T12:41:02.434Z,984.9
2017-09-04T12:42:02.888Z,984.9
2017-09-04T12:43:03.833Z,984.9
2017-09-04T12:44:03.069Z,984.9
2017-09-04T12:45:02.717Z,984.9
2017-09-04T12:46:03.533Z,984.8
2017-09-04T12:47:03.330Z,984.8
2017-09-04T12:48:02.952Z,984.8
2017-09-04T12:49:03.572Z,984.8
2017-09-04T12:50:02.961Z,984.8
2017-09-04T12:51:02.766Z,984.8
2017-09-04T12:52:03.158Z,984.7
2017-09-04T12:53:02.968Z,984.8
2017-09-04T12:54:02.737Z,984.8
2017-09-04T12:55:03.757Z,984.8
2017-09-04T12:56:03.362Z,984.8
2017-09-04T12:57:03.021Z,984.8
2017-09-04T12:58:03.156Z,984.8
2017-09-04T12:59:02.846Z,984.9
2017-09-04T13:00:04.049Z,984.9
2017-09-04T13:01:04.183Z,984.9
2017-09-04T13:02:04.441Z,984.9
2017-09-04T13:03:04.095Z,984.8
2017-09-04T13:04:03.518Z,984.8
2017-09-04T13:05:03.837Z,984.8
2017-09-04T13:06:03.710Z,984.8
2017-09-04T13:07:03.000Z,984.8